Time;durP1;ratioP1;P1;durP2;ratioP2;P2;SDS_P1;SDS_P2;PMS_P1;PMS_P2;Temp;Humidity;BMP_temperature;BMP_pressure;BME280_temperature;BME280_humidity;BME280_pressure;Samples;Min_cycle;Max_cycle;Signal;HPM_P1;HPM_P2
2023/09/13 00:02:05;;;;;;;13.35;11.95;;;19.60;99.90;;;;;;5042076;28;20021;-73
2023/09/13 00:04:32;;;;;;;12.23;11.02;;;19.60;99.90;;;;;;5053439;28;20040;-73
2023/09/13 00:06:58;;;;;;;11.45;10.10;;;19.50;99.90;;;;;;5042875;28;20033;-73
2023/09/13 00:09:25;;;;;;;9.50;8.55;;;19.50;99.90;;;;;;5027066;28;20040;-72
2023/09/13 00:11:51;;;;;;;10.85;9.75;;;19.50;99.90;;;;;;5044154;28;20029;-73
2023/09/13 00:14:18;;;;;;;10.60;9.50;;;19.50;99.90;;;;;;5028085;28;20044;-73
2023/09/13 00:16:44;;;;;;;9.95;8.93;;;19.50;99.90;;;;;;5044978;28;20052;-73
2023/09/13 00:19:11;;;;;;;10.93;9.80;;;19.50;99.90;;;;;;5029897;28;20040;-73
2023/09/13 00:21:40;;;;;;;11.77;10.65;;;19.50;99.90;;;;;;5046539;28;20040;-72
2023/09/13 00:24:07;;;;;;;10.82;9.85;;;19.50;99.90;;;;;;5028368;28;20491;-72
2023/09/13 00:26:34;;;;;;;11.60;10.40;;;19.40;99.90;;;;;;5041674;28;20049;-73
2023/09/13 00:29:00;;;;;;;10.90;9.80;;;19.50;99.90;;;;;;5025072;28;20505;-72
2023/09/13 00:31:27;;;;;;;10.20;9.25;;;19.40;99.90;;;;;;5029661;28;20033;-72
2023/09/13 00:33:53;;;;;;;12.32;11.07;;;19.50;99.90;;;;;;5045966;28;20440;-72
2023/09/13 00:36:20;;;;;;;12.43;11.13;;;19.50;99.90;;;;;;5046570;28;20052;-72
2023/09/13 00:38:46;;;;;;;12.38;11.18;;;19.50;99.90;;;;;;5042641;28;20425;-72
2023/09/13 00:41:12;;;;;;;12.15;10.85;;;19.40;99.90;;;;;;5047819;28;20029;-72
2023/09/13 00:43:39;;;;;;;12.88;11.18;;;19.50;99.90;;;;;;5029026;28;20507;-72
2023/09/13 00:46:05;;;;;;;12.63;11.30;;;19.50;99.90;;;;;;5046474;28;20033;-72
2023/09/13 00:48:35;;;;;;;12.77;11.48;;;19.40;99.90;;;;;;5045782;28;20051;-73
2023/09/13 00:51:03;;;;;;;13.13;11.77;;;19.40;99.90;;;;;;5045843;28;20476;-72
2023/09/13 00:53:31;;;;;;;11.95;10.70;;;19.50;99.90;;;;;;5045107;28;20496;-72
2023/09/13 00:55:58;;;;;;;12.82;11.50;;;19.50;99.90;;;;;;5043727;28;20040;-73
2023/09/13 00:58:26;;;;;;;11.52;10.32;;;19.50;99.90;;;;;;5045373;28;20025;-72
2023/09/13 01:00:53;;;;;;;10.85;9.75;;;19.50;99.90;;;;;;5027739;28;20040;-72
2023/09/13 01:03:22;;;;;;;11.88;10.68;;;19.50;99.90;;;;;;5041159;28;20487;-73
2023/09/13 01:05:54;;;;;;;12.30;11.15;;;19.50;99.90;;;;;;5018844;28;20037;-72
2023/09/13 01:08:21;;;;;;;11.68;10.52;;;19.50;99.90;;;;;;5028822;28;20036;-72
2023/09/13 01:10:47;;;;;;;16.40;14.55;;;19.50;99.90;;;;;;5042495;28;20029;-72
2023/09/13 01:13:14;;;;;;;13.07;11.60;;;19.50;99.90;;;;;;5028930;28;20032;-72
2023/09/13 01:16:09;;;;;;;14.00;12.50;;;19.50;99.90;;;;;;5044853;28;20040;-73
2023/09/13 01:19:01;;;;;;;12.32;11.23;;;19.50;99.90;;;;;;5043798;28;20033;-72
2023/09/13 01:22:10;;;;;;;14.15;12.13;;;19.50;99.90;;;;;;5044197;28;20029;-72
2023/09/13 01:24:52;;;;;;;13.50;12.13;;;19.50;99.90;;;;;;5045252;28;20048;-73
2023/09/13 01:27:46;;;;;;;14.90;12.33;;;19.50;99.90;;;;;;5041503;28;20034;-72
2023/09/13 01:30:14;;;;;;;13.02;11.65;;;19.50;99.90;;;;;;5039751;28;20296;-72
2023/09/13 01:32:44;;;;;;;14.63;12.57;;;19.50;99.90;;;;;;5044035;28;20052;-72
2023/09/13 01:35:11;;;;;;;13.35;11.82;;;19.50;99.90;;;;;;5010713;28;20037;-72
2023/09/13 01:37:37;;;;;;;17.40;15.60;;;19.50;99.90;;;;;;5042243;28;20049;-72
2023/09/13 01:40:06;;;;;;;18.48;16.52;;;19.50;99.90;;;;;;5039069;28;20380;-72
2023/09/13 01:42:36;;;;;;;16.45;14.02;;;19.40;99.90;;;;;;5043238;28;20037;-71
2023/09/13 01:45:07;;;;;;;14.55;13.02;;;19.40;99.90;;;;;;5023645;28;20033;-71
2023/09/13 01:47:34;;;;;;;16.45;14.05;;;19.30;99.90;;;;;;5026017;28;20032;-71
2023/09/13 01:50:01;;;;;;;17.35;15.55;;;19.30;99.90;;;;;;5022649;28;20029;-71
2023/09/13 01:52:29;;;;;;;16.17;14.52;;;19.30;99.90;;;;;;5029860;28;20735;-72
2023/09/13 01:54:56;;;;;;;18.10;16.20;;;19.30;99.90;;;;;;5036556;28;20534;-71
2023/09/13 01:57:22;;;;;;;15.20;13.60;;;19.30;99.90;;;;;;5037697;28;20038;-72
2023/09/13 01:59:49;;;;;;;15.85;14.00;;;19.30;99.90;;;;;;5019170;28;20582;-72
2023/09/13 02:02:15;;;;;;;14.40;12.93;;;19.30;99.90;;;;;;5041649;28;20037;-72
2023/09/13 02:04:41;;;;;;;14.00;12.68;;;19.30;99.90;;;;;;5054076;28;20036;-72
2023/09/13 02:07:08;;;;;;;15.13;13.63;;;19.40;99.90;;;;;;5012524;28;20029;-72
2023/09/13 02:09:36;;;;;;;16.00;14.38;;;19.30;99.90;;;;;;5027888;28;20033;-73
2023/09/13 02:12:04;;;;;;;17.75;15.85;;;19.30;99.90;;;;;;5027703;28;20518;-73
2023/09/13 02:14:30;;;;;;;14.45;12.95;;;19.30;99.90;;;;;;5044858;28;20060;-73
2023/09/13 02:17:00;;;;;;;12.43;11.20;;;19.40;99.90;;;;;;5028054;28;20132;-73
2023/09/13 02:19:26;;;;;;;12.32;10.95;;;19.40;99.90;;;;;;5044732;28;20403;-72
2023/09/13 02:21:53;;;;;;;12.73;11.43;;;19.30;99.90;;;;;;5027512;28;20037;-73
2023/09/13 02:24:19;;;;;;;13.23;11.82;;;19.30;99.90;;;;;;5027469;28;20040;-72
2023/09/13 02:26:45;;;;;;;11.43;10.32;;;19.30;99.90;;;;;;5041492;28;20051;-73
2023/09/13 02:29:11;;;;;;;9.65;8.68;;;19.30;99.90;;;;;;5060044;28;20044;-73
2023/09/13 02:31:39;;;;;;;10.52;9.52;;;19.30;99.90;;;;;;5039969;28;20037;-73
2023/09/13 02:34:05;;;;;;;11.70;10.50;;;19.30;99.90;;;;;;5043932;28;20047;-73
2023/09/13 02:36:31;;;;;;;11.55;10.35;;;19.30;99.90;;;;;;5040749;28;20040;-73
2023/09/13 02:38:59;;;;;;;12.60;10.93;;;19.30;99.90;;;;;;5046483;28;20040;-73
2023/09/13 02:41:25;;;;;;;13.13;10.85;;;19.20;99.90;;;;;;5043834;28;20037;-73
2023/09/13 02:43:52;;;;;;;10.57;9.48;;;19.30;99.90;;;;;;5030647;28;20372;-73
2023/09/13 02:46:18;;;;;;;11.55;10.45;;;19.30;99.90;;;;;;5031527;28;20048;-73
2023/09/13 02:48:45;;;;;;;11.25;9.98;;;19.30;99.90;;;;;;5046312;28;20043;-73
2023/09/13 02:51:13;;;;;;;12.57;10.88;;;19.30;99.90;;;;;;5031013;28;20032;-73
2023/09/13 02:53:39;;;;;;;10.93;9.80;;;19.30;99.90;;;;;;5031259;28;20414;-73
2023/09/13 02:56:09;;;;;;;10.63;8.90;;;19.30;99.90;;;;;;5036948;28;20041;-73
2023/09/13 02:58:37;;;;;;;10.25;9.25;;;19.30;99.90;;;;;;5061282;28;20029;-73
2023/09/13 03:01:10;;;;;;;10.75;9.65;;;19.30;99.90;;;;;;5047632;28;20051;-72
2023/09/13 03:03:38;;;;;;;11.65;10.40;;;19.30;99.90;;;;;;5035089;28;20032;-73
2023/09/13 03:06:13;;;;;;;11.05;9.95;;;19.30;99.90;;;;;;5031331;28;20395;-73
2023/09/13 03:08:41;;;;;;;11.48;9.70;;;19.20;99.90;;;;;;5039721;28;20096;-72
2023/09/13 03:11:15;;;;;;;10.80;9.80;;;19.20;99.90;;;;;;5045969;28;20395;-72
2023/09/13 03:13:43;;;;;;;10.95;9.88;;;19.20;99.90;;;;;;5036701;28;20037;-73
2023/09/13 03:16:18;;;;;;;10.73;9.73;;;19.10;99.90;;;;;;5036224;28;20037;-72
2023/09/13 03:18:46;;;;;;;9.95;9.02;;;19.10;99.90;;;;;;5045199;28;20039;-73
2023/09/13 03:21:17;;;;;;;11.48;10.38;;;19.00;99.90;;;;;;5046521;28;20036;-72
2023/09/13 03:23:46;;;;;;;10.32;9.32;;;19.00;99.90;;;;;;5041736;28;20040;-72
2023/09/13 03:26:14;;;;;;;11.00;9.90;;;19.00;99.90;;;;;;5045729;28;20052;-72
2023/09/13 03:28:44;;;;;;;10.27;9.30;;;19.00;99.90;;;;;;5026411;28;20041;-72
2023/09/13 03:31:18;;;;;;;10.38;9.27;;;19.00;99.90;;;;;;5047306;28;20449;-72
2023/09/13 03:33:46;;;;;;;11.63;10.40;;;19.00;99.90;;;;;;5036702;28;20052;-72
2023/09/13 03:36:13;;;;;;;11.50;10.38;;;19.10;99.90;;;;;;5030847;28;20045;-72
2023/09/13 03:38:42;;;;;;;10.38;9.38;;;19.10;99.90;;;;;;5047257;28;20507;-72
2023/09/13 03:41:21;;;;;;;11.15;10.02;;;19.10;99.90;;;;;;5046778;28;20040;-72
2023/09/13 03:43:49;;;;;;;10.93;9.82;;;19.10;99.90;;;;;;5045192;28;20041;-72
2023/09/13 03:46:15;;;;;;;10.57;8.80;;;19.10;99.90;;;;;;5024151;28;20042;-72
2023/09/13 03:48:43;;;;;;;10.15;8.73;;;19.10;99.90;;;;;;5044436;28;20497;-73
2023/09/13 03:51:11;;;;;;;10.10;8.88;;;19.00;99.90;;;;;;5010993;28;20041;-72
2023/09/13 03:53:38;;;;;;;10.00;9.00;;;19.00;99.90;;;;;;5059353;28;20047;-72
2023/09/13 03:56:06;;;;;;;11.27;10.07;;;18.90;99.90;;;;;;5020546;28;20048;-73
2023/09/13 03:58:34;;;;;;;13.98;11.23;;;19.00;99.90;;;;;;5061159;28;20032;-73
2023/09/13 04:01:00;;;;;;;11.13;10.02;;;19.00;99.90;;;;;;5057510;28;20043;-72
2023/09/13 04:03:27;;;;;;;11.65;10.52;;;19.00;99.90;;;;;;5024360;28;20051;-72
2023/09/13 04:05:53;;;;;;;11.73;10.52;;;19.00;99.90;;;;;;5060691;28;20039;-72
2023/09/13 04:08:20;;;;;;;10.73;9.65;;;19.10;99.90;;;;;;5029813;28;20407;-72
2023/09/13 04:10:46;;;;;;;11.68;10.50;;;19.10;99.90;;;;;;5029839;28;20045;-72
2023/09/13 04:13:13;;;;;;;11.70;10.50;;;19.10;99.90;;;;;;5046043;28;20025;-73
2023/09/13 04:15:43;;;;;;;11.75;10.55;;;19.10;99.90;;;;;;5028831;28;20044;-72
2023/09/13 04:18:10;;;;;;;13.32;10.68;;;19.10;99.90;;;;;;5041997;28;20136;-73
2023/09/13 04:20:36;;;;;;;11.90;10.65;;;19.10;99.90;;;;;;5039996;28;20045;-73
2023/09/13 04:23:03;;;;;;;15.70;13.38;;;19.10;99.90;;;;;;5030283;28;20037;-73
2023/09/13 04:25:30;;;;;;;19.20;16.40;;;19.10;99.90;;;;;;5027742;28;20036;-73
2023/09/13 04:27:57;;;;;;;18.17;16.02;;;19.20;99.90;;;;;;5039872;28;20041;-73
2023/09/13 04:30:24;;;;;;;23.45;18.42;;;19.20;99.90;;;;;;5040097;28;20044;-72
2023/09/13 04:32:50;;;;;;;22.75;18.25;;;19.20;99.90;;;;;;5029594;28;20041;-72
2023/09/13 04:35:17;;;;;;;22.02;18.08;;;19.20;99.90;;;;;;5028000;28;20048;-73
2023/09/13 04:37:43;;;;;;;22.23;18.48;;;19.20;99.90;;;;;;5013114;28;20044;-73
2023/09/13 04:40:12;;;;;;;28.95;22.60;;;19.20;99.90;;;;;;5027592;28;20067;-72
2023/09/13 04:42:46;;;;;;;26.73;20.70;;;19.30;99.90;;;;;;5043488;28;20036;-72
2023/09/13 04:45:13;;;;;;;45.22;34.60;;;19.30;99.90;;;;;;5044955;28;20033;-72
2023/09/13 04:47:40;;;;;;;39.50;31.13;;;19.30;99.90;;;;;;5013549;28;20051;-73
2023/09/13 04:50:07;;;;;;;37.22;29.45;;;19.30;99.90;;;;;;5044256;28;20044;-73
2023/09/13 04:52:34;;;;;;;44.40;30.75;;;19.30;99.90;;;;;;5032652;28;20586;-73
2023/09/13 04:55:01;;;;;;;44.05;32.15;;;19.30;99.90;;;;;;5051398;28;20029;-73
2023/09/13 04:57:28;;;;;;;44.42;33.58;;;19.20;99.90;;;;;;5011258;28;20040;-72
2023/09/13 04:59:56;;;;;;;56.55;40.60;;;19.20;99.90;;;;;;5042838;28;20040;-73
2023/09/13 05:02:22;;;;;;;51.60;39.13;;;19.20;99.90;;;;;;5044615;28;20037;-73
2023/09/13 05:04:49;;;;;;;41.35;32.55;;;19.20;99.90;;;;;;5028955;28;20059;-72
2023/09/13 05:07:15;;;;;;;55.30;38.92;;;19.10;99.90;;;;;;5041723;28;20036;-72
2023/09/13 05:09:41;;;;;;;52.58;40.97;;;19.10;99.90;;;;;;5043388;28;20052;-72
2023/09/13 05:12:08;;;;;;;44.10;34.00;;;19.10;99.90;;;;;;5041927;28;20394;-73
2023/09/13 05:14:36;;;;;;;56.55;41.28;;;19.10;99.90;;;;;;5044718;28;20054;-72
2023/09/13 05:17:03;;;;;;;40.80;31.52;;;19.10;99.90;;;;;;5043021;28;20428;-72
2023/09/13 05:19:29;;;;;;;53.08;37.88;;;19.10;99.90;;;;;;5043950;28;20026;-72
2023/09/13 05:21:56;;;;;;;52.00;38.00;;;19.10;99.90;;;;;;5044560;28;20595;-72
2023/09/13 05:24:22;;;;;;;51.22;36.53;;;19.10;99.90;;;;;;5056182;28;20483;-72
2023/09/13 05:26:49;;;;;;;46.45;35.47;;;19.10;99.90;;;;;;5036927;28;20548;-72
2023/09/13 05:29:15;;;;;;;45.25;33.97;;;19.00;99.90;;;;;;5023331;28;20063;-73
2023/09/13 05:31:41;;;;;;;52.63;39.72;;;19.00;99.90;;;;;;5028117;28;20044;-72
2023/09/13 05:34:08;;;;;;;50.28;35.42;;;19.00;99.90;;;;;;5034835;28;20503;-73
2023/09/13 05:36:34;;;;;;;49.38;37.05;;;19.00;99.90;;;;;;5010115;28;20051;-73
2023/09/13 05:39:00;;;;;;;43.78;32.55;;;19.00;99.90;;;;;;5039029;28;20782;-73
2023/09/13 05:41:27;;;;;;;54.53;38.47;;;19.00;99.90;;;;;;5026156;28;20040;-74
2023/09/13 05:43:53;;;;;;;42.72;33.70;;;19.00;99.90;;;;;;5043809;28;20037;-74
2023/09/13 05:46:19;;;;;;;56.47;41.03;;;19.00;99.90;;;;;;5040400;28;20215;-73
2023/09/13 05:48:46;;;;;;;54.47;40.47;;;18.90;99.90;;;;;;5026888;28;20115;-73
2023/09/13 05:51:12;;;;;;;51.20;37.20;;;18.90;99.90;;;;;;5057323;28;20045;-73
2023/09/13 05:53:38;;;;;;;63.10;44.42;;;18.90;99.90;;;;;;5025403;28;20500;-72
2023/09/13 05:56:05;;;;;;;47.85;33.92;;;18.90;99.90;;;;;;5043464;28;20483;-73
2023/09/13 05:58:31;;;;;;;51.45;37.08;;;18.90;99.90;;;;;;5039111;28;20038;-73
2023/09/13 06:00:59;;;;;;;52.53;36.50;;;18.90;99.90;;;;;;5056969;28;20040;-73
2023/09/13 06:03:25;;;;;;;49.17;36.22;;;18.90;99.90;;;;;;5041407;28;20048;-72
2023/09/13 06:05:52;;;;;;;53.42;36.70;;;18.90;99.90;;;;;;5034583;28;20033;-72
2023/09/13 06:08:18;;;;;;;48.92;35.78;;;18.90;99.90;;;;;;5044648;28;20052;-73
2023/09/13 06:10:46;;;;;;;48.10;36.08;;;19.00;99.90;;;;;;5048887;28;20048;-73
2023/09/13 06:13:12;;;;;;;69.10;44.28;;;19.00;99.90;;;;;;5030471;28;20492;-73
2023/09/13 06:15:38;;;;;;;57.72;41.47;;;19.00;99.90;;;;;;5047681;28;20040;-72
2023/09/13 06:18:05;;;;;;;62.85;43.35;;;19.00;99.90;;;;;;5038028;28;20476;-73
2023/09/13 06:20:32;;;;;;;51.47;38.10;;;19.10;99.90;;;;;;5045857;28;20037;-73
2023/09/13 06:22:58;;;;;;;46.30;34.88;;;19.00;99.90;;;;;;5046640;28;20032;-76
2023/09/13 06:25:25;;;;;;;54.95;38.50;;;19.10;99.90;;;;;;5048726;28;20041;-73
2023/09/13 06:27:51;;;;;;;44.08;31.50;;;19.10;99.90;;;;;;5041336;28;20037;-73
2023/09/13 06:30:19;;;;;;;53.47;36.03;;;19.10;99.90;;;;;;5044248;28;20033;-73
2023/09/13 06:32:46;;;;;;;45.58;34.33;;;19.10;99.90;;;;;;5031431;28;20063;-72
2023/09/13 06:35:13;;;;;;;47.28;35.25;;;19.20;99.90;;;;;;5014062;28;20041;-72
2023/09/13 06:37:40;;;;;;;48.92;34.50;;;19.20;99.90;;;;;;5044419;28;20037;-73
2023/09/13 06:40:07;;;;;;;44.83;33.53;;;19.20;99.90;;;;;;5041891;28;20029;-72
2023/09/13 06:42:34;;;;;;;40.50;28.08;;;19.20;99.90;;;;;;5026492;28;20025;-73
2023/09/13 06:45:02;;;;;;;37.88;29.88;;;19.30;99.90;;;;;;5046668;28;20414;-72
2023/09/13 06:47:31;;;;;;;47.42;34.03;;;19.40;99.90;;;;;;5048260;28;20036;-72
2023/09/13 06:49:57;;;;;;;38.58;29.55;;;19.40;99.90;;;;;;5045598;28;20048;-72
2023/09/13 06:52:23;;;;;;;42.00;31.83;;;19.30;99.90;;;;;;5047969;28;20033;-71
2023/09/13 06:54:50;;;;;;;42.38;31.88;;;19.40;99.90;;;;;;5026338;28;20037;-72
2023/09/13 06:57:16;;;;;;;42.50;31.58;;;19.30;99.90;;;;;;5044792;28;20388;-72
2023/09/13 06:59:43;;;;;;;48.83;35.83;;;19.30;99.90;;;;;;5025589;28;20546;-72
2023/09/13 07:02:09;;;;;;;33.65;24.45;;;19.30;99.90;;;;;;5044455;28;20028;-73
2023/09/13 07:04:37;;;;;;;13.35;10.23;;;19.20;99.90;;;;;;5027734;28;20143;-73
2023/09/13 07:07:04;;;;;;;6.82;3.72;;;19.00;99.90;;;;;;5040195;28;20037;-72
2023/09/13 07:09:30;;;;;;;3.25;1.10;;;18.70;99.90;;;;;;5033793;28;20048;-72
2023/09/13 07:11:56;;;;;;;1.73;0.90;;;18.30;99.90;;;;;;5027950;28;20438;-72
2023/09/13 07:14:23;;;;;;;1.67;0.40;;;18.00;99.90;;;;;;5028435;28;20037;-72
2023/09/13 07:16:49;;;;;;;1.17;0.35;;;17.70;99.90;;;;;;5049021;28;20403;-72
2023/09/13 07:19:15;;;;;;;1.08;0.30;;;17.50;99.90;;;;;;5039990;28;20036;-72
2023/09/13 07:21:42;;;;;;;0.95;0.35;;;17.40;99.90;;;;;;5047248;28;20052;-72
2023/09/13 07:24:09;;;;;;;1.40;0.30;;;17.40;99.90;;;;;;5044890;28;20032;-72
2023/09/13 07:26:36;;;;;;;0.90;0.30;;;17.30;99.90;;;;;;5040961;28;20528;-72
2023/09/13 07:29:02;;;;;;;0.95;0.38;;;17.10;99.90;;;;;;5012350;28;20048;-72
2023/09/13 07:31:29;;;;;;;1.35;0.30;;;17.00;99.90;;;;;;5045513;28;20036;-71
2023/09/13 07:33:56;;;;;;;0.95;0.28;;;17.00;99.90;;;;;;5018255;28;20043;-71
2023/09/13 07:36:23;;;;;;;2.05;0.40;;;17.00;99.90;;;;;;5041148;28;20033;-72
2023/09/13 07:38:49;;;;;;;1.48;0.40;;;17.00;99.90;;;;;;5046206;28;20049;-72
2023/09/13 07:41:16;;;;;;;0.90;0.30;;;17.00;99.90;;;;;;5043788;28;20022;-71
2023/09/13 07:43:42;;;;;;;0.77;0.22;;;16.90;99.90;;;;;;5046316;28;20274;-72
2023/09/13 07:46:08;;;;;;;0.55;0.30;;;17.00;99.90;;;;;;5046683;28;20037;-72
2023/09/13 07:48:34;;;;;;;1.60;0.30;;;16.90;99.90;;;;;;5028948;28;20056;-72
2023/09/13 07:51:02;;;;;;;1.70;0.30;;;17.00;99.90;;;;;;5042828;28;20034;-72
2023/09/13 07:53:29;;;;;;;1.40;0.22;;;17.00;99.90;;;;;;5046617;28;20033;-72
2023/09/13 07:55:59;;;;;;;1.50;0.30;;;17.20;99.90;;;;;;5026709;28;20041;-72
2023/09/13 07:58:25;;;;;;;1.25;0.30;;;17.30;99.90;;;;;;5047036;28;20052;-71
2023/09/13 08:00:52;;;;;;;0.80;0.30;;;17.30;99.90;;;;;;5046766;28;20048;-72
2023/09/13 08:03:18;;;;;;;0.82;0.30;;;17.30;99.90;;;;;;5031974;28;20404;-72
2023/09/13 08:05:46;;;;;;;1.88;0.40;;;17.30;99.90;;;;;;5036865;28;20044;-72
2023/09/13 08:08:22;;;;;;;1.40;0.30;;;17.30;99.90;;;;;;5030038;28;20551;-71
2023/09/13 08:10:49;;;;;;;1.25;0.30;;;17.30;99.90;;;;;;5046404;28;20040;-71
2023/09/13 08:13:17;;;;;;;1.13;0.30;;;17.40;99.90;;;;;;5012240;28;20530;-72
2023/09/13 08:15:44;;;;;;;0.73;0.30;;;17.40;99.90;;;;;;5043882;28;20029;-72
2023/09/13 08:18:11;;;;;;;1.45;0.30;;;17.50;99.90;;;;;;5027524;28;20040;-72
2023/09/13 08:20:37;;;;;;;2.60;0.40;;;17.60;99.90;;;;;;5045672;28;20047;-72
2023/09/13 08:23:04;;;;;;;2.83;0.50;;;17.70;99.90;;;;;;5027739;28;20400;-72
2023/09/13 08:25:30;;;;;;;2.05;0.60;;;17.70;99.90;;;;;;5026976;28;20049;-73
2023/09/13 08:27:56;;;;;;;1.55;0.30;;;17.60;99.90;;;;;;5044705;28;20029;-72
2023/09/13 08:30:24;;;;;;;1.52;0.30;;;17.50;99.90;;;;;;5026652;28;20106;-71
2023/09/13 08:32:50;;;;;;;2.00;0.32;;;17.50;99.90;;;;;;5044826;28;20036;-72
2023/09/13 08:35:17;;;;;;;3.17;0.70;;;17.60;99.90;;;;;;5058020;28;20033;-72
2023/09/13 08:37:43;;;;;;;3.00;0.70;;;17.60;99.90;;;;;;5046466;28;20036;-72
2023/09/13 08:40:11;;;;;;;0.73;0.30;;;17.80;99.90;;;;;;5047787;28;20029;-72
2023/09/13 08:42:39;;;;;;;1.70;0.40;;;17.80;99.90;;;;;;5026015;28;20519;-72
2023/09/13 08:45:06;;;;;;;1.27;0.32;;;17.90;99.90;;;;;;5043425;28;20538;-72
2023/09/13 08:47:38;;;;;;;2.50;0.50;;;18.00;99.90;;;;;;5046434;28;20052;-73
2023/09/13 08:50:06;;;;;;;2.30;0.50;;;18.00;99.90;;;;;;5044739;28;20017;-72
2023/09/13 08:52:35;;;;;;;2.53;0.60;;;18.00;99.90;;;;;;5012845;28;20299;-72
2023/09/13 08:55:04;;;;;;;2.55;0.57;;;18.10;99.90;;;;;;5036677;28;20040;-72
2023/09/13 08:57:31;;;;;;;3.30;0.40;;;18.20;99.90;;;;;;5028773;28;20048;-72
2023/09/13 08:59:57;;;;;;;2.42;0.50;;;18.20;99.90;;;;;;5045546;28;20029;-72
2023/09/13 09:02:26;;;;;;;2.15;0.50;;;18.20;99.90;;;;;;5040450;28;20029;-72
2023/09/13 09:04:53;;;;;;;1.80;0.70;;;18.20;99.90;;;;;;5039082;28;20040;-72
2023/09/13 09:07:21;;;;;;;1.80;0.50;;;18.20;99.90;;;;;;5046066;28;20032;-72
2023/09/13 09:09:48;;;;;;;2.60;0.50;;;18.30;99.90;;;;;;5036144;28;20405;-72
2023/09/13 09:12:20;;;;;;;1.83;0.40;;;18.30;99.90;;;;;;5029202;28;20029;-73
2023/09/13 09:14:50;;;;;;;2.33;0.52;;;18.30;99.90;;;;;;5043500;28;20045;-73
2023/09/13 09:17:19;;;;;;;1.55;0.40;;;18.30;99.90;;;;;;5041370;28;20055;-72
2023/09/13 09:19:46;;;;;;;1.65;0.30;;;18.40;99.90;;;;;;5022455;28;20036;-73
2023/09/13 09:22:12;;;;;;;1.33;0.40;;;18.40;99.90;;;;;;5026083;28;20084;-73
2023/09/13 09:24:40;;;;;;;2.35;0.50;;;18.50;99.90;;;;;;5043375;28;20570;-72
2023/09/13 09:27:06;;;;;;;2.13;0.40;;;18.70;99.90;;;;;;5042923;28;20032;-73
2023/09/13 09:29:35;;;;;;;1.63;0.82;;;18.80;99.90;;;;;;5045074;28;20041;-73
2023/09/13 09:32:05;;;;;;;1.98;0.40;;;18.80;99.90;;;;;;5030207;28;20415;-73
2023/09/13 09:34:32;;;;;;;1.17;0.60;;;18.90;99.90;;;;;;5029754;28;20489;-72
2023/09/13 09:37:09;;;;;;;2.17;0.63;;;19.10;99.90;;;;;;5041376;28;20408;-72
2023/09/13 09:39:37;;;;;;;1.48;0.40;;;19.30;99.90;;;;;;5040344;28;20040;-72
2023/09/13 09:42:04;;;;;;;1.00;0.40;;;19.40;99.90;;;;;;5025766;28;20048;-72
2023/09/13 09:44:31;;;;;;;2.35;0.30;;;19.50;99.90;;;;;;5043391;28;20036;-72
2023/09/13 09:46:57;;;;;;;1.35;0.30;;;19.60;99.90;;;;;;5025693;28;20024;-72
2023/09/13 09:49:27;;;;;;;1.10;0.30;;;19.80;99.90;;;;;;5061876;28;20055;-72
2023/09/13 09:51:54;;;;;;;2.80;0.40;;;20.00;99.90;;;;;;5021712;28;20515;-73
2023/09/13 09:54:20;;;;;;;1.75;0.57;;;20.20;99.90;;;;;;5037483;28;20033;-72
2023/09/13 09:56:47;;;;;;;1.25;0.40;;;20.30;99.90;;;;;;5031592;28;20028;-73
2023/09/13 09:59:13;;;;;;;1.30;0.30;;;20.30;99.90;;;;;;5033808;28;20476;-72
2023/09/13 10:01:42;;;;;;;1.52;0.40;;;20.40;99.90;;;;;;5052601;28;20044;-72
2023/09/13 10:04:10;;;;;;;2.65;0.40;;;20.50;99.90;;;;;;5047389;28;20032;-71
2023/09/13 10:06:37;;;;;;;1.73;0.40;;;20.60;99.90;;;;;;5019580;28;20476;-72
2023/09/13 10:09:04;;;;;;;3.38;0.50;;;20.70;99.90;;;;;;5031649;28;20151;-72
2023/09/13 10:11:30;;;;;;;1.30;0.30;;;20.80;99.90;;;;;;5035432;28;20047;-71
2023/09/13 10:13:57;;;;;;;1.67;0.32;;;20.90;99.90;;;;;;5041450;28;20076;-71
2023/09/13 10:16:30;;;;;;;3.67;0.75;;;21.00;99.90;;;;;;5046830;28;20427;-72
2023/09/13 10:19:01;;;;;;;1.77;0.50;;;20.90;99.90;;;;;;5048279;28;20052;-72
2023/09/13 10:21:30;;;;;;;1.90;0.55;;;20.80;99.90;;;;;;5046045;28;20507;-72
2023/09/13 10:24:07;;;;;;;2.75;0.50;;;20.60;99.90;;;;;;5042742;28;20033;-72
2023/09/13 10:26:34;;;;;;;2.35;0.57;;;20.80;99.90;;;;;;5029211;28;20040;-72
2023/09/13 10:29:12;;;;;;;2.42;1.13;;;21.30;99.90;;;;;;5045988;28;20040;-73
2023/09/13 10:31:46;;;;;;;1.10;0.50;;;21.80;99.90;;;;;;5024630;28;20037;-73
2023/09/13 10:34:23;;;;;;;2.72;1.35;;;22.20;99.90;;;;;;5032451;28;20040;-74
2023/09/13 10:36:58;;;;;;;3.88;1.17;;;22.20;99.90;;;;;;5048033;28;20046;-74
2023/09/13 10:39:30;;;;;;;3.15;0.80;;;22.10;99.90;;;;;;5043220;28;20084;-74
2023/09/13 10:42:06;;;;;;;2.70;1.42;;;22.00;99.90;;;;;;5033793;28;20041;-73
2023/09/13 10:44:36;;;;;;;3.08;0.70;;;22.00;99.90;;;;;;5027356;28;20068;-74
2023/09/13 10:47:07;;;;;;;3.63;0.75;;;21.90;99.90;;;;;;5020172;28;20033;-74
2023/09/13 10:49:36;;;;;;;2.80;0.82;;;22.00;99.90;;;;;;5041518;28;20037;-75
2023/09/13 10:52:05;;;;;;;3.42;0.90;;;21.90;99.90;;;;;;5035670;28;20385;-76
2023/09/13 10:54:32;;;;;;;2.03;0.50;;;21.70;99.90;;;;;;5013851;28;20377;-77
2023/09/13 10:56:59;;;;;;;1.73;0.60;;;21.60;99.90;;;;;;5026710;28;20048;-75
2023/09/13 10:59:26;;;;;;;2.58;0.80;;;21.60;99.90;;;;;;5021366;28;20035;-76
2023/09/13 11:01:52;;;;;;;2.03;0.60;;;21.70;99.90;;;;;;5012234;28;20488;-76
2023/09/13 11:04:25;;;;;;;2.20;0.70;;;21.90;99.90;;;;;;5036379;28;20447;-76
2023/09/13 11:06:53;;;;;;;4.68;0.77;;;21.90;99.90;;;;;;5019840;28;20029;-76
2023/09/13 11:09:30;;;;;;;4.88;0.85;;;21.60;99.90;;;;;;5043778;28;20037;-77
2023/09/13 11:11:57;;;;;;;2.75;0.60;;;21.30;99.90;;;;;;5045494;28;20030;-77
2023/09/13 11:14:28;;;;;;;3.83;0.70;;;21.00;99.90;;;;;;5034103;28;20048;-77
2023/09/13 11:16:57;;;;;;;2.97;0.90;;;20.90;99.90;;;;;;5046458;28;20044;-77
2023/09/13 11:19:27;;;;;;;2.60;0.60;;;20.90;99.90;;;;;;5030958;28;20025;-78
2023/09/13 11:22:06;;;;;;;2.40;0.70;;;21.00;99.90;;;;;;5048740;28;20535;-76
2023/09/13 11:24:40;;;;;;;4.90;1.45;;;21.10;99.90;;;;;;5012475;28;20029;-77
2023/09/13 11:27:18;;;;;;;4.85;1.10;;;21.00;99.90;;;;;;5059021;28;20487;-78
2023/09/13 11:29:52;;;;;;;3.88;1.00;;;21.00;99.90;;;;;;5064365;28;20041;-76
2023/09/13 11:32:20;;;;;;;3.05;0.85;;;20.90;99.90;;;;;;5047495;28;20049;-77
2023/09/13 11:34:58;;;;;;;3.42;0.75;;;20.90;99.90;;;;;;5042352;28;20033;-78
2023/09/13 11:37:25;;;;;;;3.30;0.60;;;20.80;99.90;;;;;;5024707;28;20063;-76
2023/09/13 11:40:06;;;;;;;2.13;0.50;;;21.00;99.90;;;;;;5051209;28;20056;-77
2023/09/13 11:42:33;;;;;;;2.67;0.60;;;21.40;99.90;;;;;;5030069;28;20044;-77
2023/09/13 11:44:59;;;;;;;1.90;0.60;;;21.80;99.90;;;;;;5029894;28;20431;-77
2023/09/13 11:47:34;;;;;;;2.38;0.60;;;22.10;99.90;;;;;;5028773;28;20420;-76
2023/09/13 11:50:00;;;;;;;1.77;0.40;;;22.40;99.90;;;;;;5059405;28;20029;-76
2023/09/13 11:52:27;;;;;;;2.45;0.60;;;22.50;99.90;;;;;;5044670;28;20519;-76
2023/09/13 11:55:00;;;;;;;2.00;0.60;;;22.50;99.90;;;;;;5041194;28;20492;-76
2023/09/13 11:57:50;;;;;;;2.47;0.60;;;22.30;99.90;;;;;;5047372;28;20041;-75
2023/09/13 12:00:19;;;;;;;2.35;0.60;;;22.20;99.90;;;;;;5042274;28;20033;-76
2023/09/13 12:02:46;;;;;;;1.75;0.40;;;22.40;99.90;;;;;;5025312;28;20037;-76
2023/09/13 12:05:13;;;;;;;2.03;0.50;;;23.10;99.90;;;;;;5036682;28;20395;-76
2023/09/13 12:07:39;;;;;;;2.35;0.50;;;23.40;99.90;;;;;;5045626;28;20025;-76
2023/09/13 12:10:06;;;;;;;1.63;0.50;;;24.40;99.90;;;;;;5041803;28;20037;-76
2023/09/13 12:12:40;;;;;;;2.15;0.57;;;25.10;99.90;;;;;;5025146;28;20483;-76
2023/09/13 12:15:16;;;;;;;2.40;0.73;;;26.00;99.90;;;;;;5045045;28;20043;-78
2023/09/13 12:17:42;;;;;;;2.58;0.90;;;25.90;99.90;;;;;;5028104;28;20045;-77
2023/09/13 12:20:10;;;;;;;3.15;0.98;;;25.60;99.90;;;;;;5010867;28;20033;-78
2023/09/13 12:22:41;;;;;;;3.90;1.10;;;25.40;99.90;;;;;;5040112;28;20056;-77
2023/09/13 12:25:16;;;;;;;2.28;1.05;;;25.10;99.90;;;;;;5044959;28;20036;-76
2023/09/13 12:27:45;;;;;;;2.17;0.50;;;24.90;99.90;;;;;;5025481;28;20045;-76
2023/09/13 12:30:19;;;;;;;2.28;0.50;;;24.70;99.90;;;;;;5022673;28;20040;-76
2023/09/13 12:32:47;;;;;;;2.55;0.40;;;24.70;99.90;;;;;;5027734;28;20052;-76
2023/09/13 12:35:14;;;;;;;1.95;0.47;;;24.70;99.90;;;;;;5042131;28;20029;-77
2023/09/13 12:37:41;;;;;;;3.15;0.60;;;24.30;99.90;;;;;;5041880;28;20029;-77
2023/09/13 12:40:12;;;;;;;3.33;0.50;;;23.90;99.90;;;;;;5046027;28;20056;-77
2023/09/13 12:42:39;;;;;;;2.33;0.98;;;23.30;99.90;;;;;;5045905;28;20028;-77
2023/09/13 12:45:06;;;;;;;4.00;0.90;;;22.80;99.90;;;;;;5044720;28;20060;-77